sensor_id;sensor_type;location;lat;lon;timestamp;P1;durP1;ratioP1;P2;durP2;ratioP2
8401;SDS011;4238;48.404;9.498;2023-02-28T00:01:34;7.63;;;4.40;;
8401;SDS011;4238;48.404;9.498;2023-02-28T00:04:01;4.70;;;4.30;;
8401;SDS011;4238;48.404;9.498;2023-02-28T00:06:28;4.87;;;4.10;;
8401;SDS011;4238;48.404;9.498;2023-02-28T00:08:55;4.33;;;4.03;;
8401;SDS011;4238;48.404;9.498;2023-02-28T00:11:22;5.97;;;4.90;;
8401;SDS011;4238;48.404;9.498;2023-02-28T00:13:49;4.73;;;3.90;;
8401;SDS011;4238;48.404;9.498;2023-02-28T00:16:17;4.47;;;4.07;;
8401;SDS011;4238;48.404;9.498;2023-02-28T00:18:46;4.40;;;4.10;;
8401;SDS011;4238;48.404;9.498;2023-02-28T00:21:13;4.27;;;3.90;;
8401;SDS011;4238;48.404;9.498;2023-02-28T00:23:41;4.63;;;4.23;;
8401;SDS011;4238;48.404;9.498;2023-02-28T00:26:07;3.80;;;3.57;;
8401;SDS011;4238;48.404;9.498;2023-02-28T00:28:34;6.87;;;4.00;;
8401;SDS011;4238;48.404;9.498;2023-02-28T00:31:01;5.37;;;4.00;;
8401;SDS011;4238;48.404;9.498;2023-02-28T00:33:30;4.80;;;4.20;;
8401;SDS011;4238;48.404;9.498;2023-02-28T00:36:03;5.13;;;3.93;;
8401;SDS011;4238;48.404;9.498;2023-02-28T00:38:32;5.23;;;4.23;;
8401;SDS011;4238;48.404;9.498;2023-02-28T00:40:59;5.87;;;4.47;;
8401;SDS011;4238;48.404;9.498;2023-02-28T00:43:29;4.43;;;3.83;;
8401;SDS011;4238;48.404;9.498;2023-02-28T00:45:57;4.13;;;3.73;;
8401;SDS011;4238;48.404;9.498;2023-02-28T00:48:24;4.70;;;4.10;;
8401;SDS011;4238;48.404;9.498;2023-02-28T00:50:52;4.00;;;3.60;;
8401;SDS011;4238;48.404;9.498;2023-02-28T00:53:20;4.63;;;3.90;;
8401;SDS011;4238;48.404;9.498;2023-02-28T00:55:48;4.27;;;3.87;;
8401;SDS011;4238;48.404;9.498;2023-02-28T00:58:15;4.07;;;3.77;;
8401;SDS011;4238;48.404;9.498;2023-02-28T01:00:42;5.37;;;4.10;;
8401;SDS011;4238;48.404;9.498;2023-02-28T01:03:13;4.13;;;3.73;;
8401;SDS011;4238;48.404;9.498;2023-02-28T01:05:41;5.03;;;4.17;;
8401;SDS011;4238;48.404;9.498;2023-02-28T01:08:09;4.50;;;4.10;;
8401;SDS011;4238;48.404;9.498;2023-02-28T01:10:36;3.93;;;3.63;;
8401;SDS011;4238;48.404;9.498;2023-02-28T01:13:03;3.93;;;3.63;;
8401;SDS011;4238;48.404;9.498;2023-02-28T01:15:30;4.37;;;3.60;;
8401;SDS011;4238;48.404;9.498;2023-02-28T01:17:58;4.37;;;3.80;;
8401;SDS011;4238;48.404;9.498;2023-02-28T01:20:25;3.97;;;3.60;;
8401;SDS011;4238;48.404;9.498;2023-02-28T01:22:52;5.57;;;4.10;;
8401;SDS011;4238;48.404;9.498;2023-02-28T01:25:20;4.20;;;3.80;;
8401;SDS011;4238;48.404;9.498;2023-02-28T01:27:47;4.47;;;3.87;;
8401;SDS011;4238;48.404;9.498;2023-02-28T01:30:14;4.70;;;3.40;;
8401;SDS011;4238;48.404;9.498;2023-02-28T01:32:41;4.90;;;4.03;;
8401;SDS011;4238;48.404;9.498;2023-02-28T01:35:08;3.43;;;3.20;;
8401;SDS011;4238;48.404;9.498;2023-02-28T01:37:35;4.10;;;3.70;;
8401;SDS011;4238;48.404;9.498;2023-02-28T01:40:02;4.57;;;3.87;;
8401;SDS011;4238;48.404;9.498;2023-02-28T01:42:31;5.33;;;4.00;;
8401;SDS011;4238;48.404;9.498;2023-02-28T01:45:03;4.47;;;3.57;;
8401;SDS011;4238;48.404;9.498;2023-02-28T01:47:40;4.07;;;3.37;;
8401;SDS011;4238;48.404;9.498;2023-02-28T01:50:11;4.37;;;3.70;;
8401;SDS011;4238;48.404;9.498;2023-02-28T01:52:40;3.83;;;3.50;;
8401;SDS011;4238;48.404;9.498;2023-02-28T01:55:09;5.60;;;3.83;;
8401;SDS011;4238;48.404;9.498;2023-02-28T01:57:40;3.93;;;3.60;;
8401;SDS011;4238;48.404;9.498;2023-02-28T02:00:13;4.03;;;3.63;;
8401;SDS011;4238;48.404;9.498;2023-02-28T02:02:41;4.53;;;4.00;;
8401;SDS011;4238;48.404;9.498;2023-02-28T02:05:14;4.53;;;4.03;;
8401;SDS011;4238;48.404;9.498;2023-02-28T02:07:44;3.73;;;3.40;;
8401;SDS011;4238;48.404;9.498;2023-02-28T02:10:14;3.97;;;3.67;;
8401;SDS011;4238;48.404;9.498;2023-02-28T02:13:03;3.87;;;3.47;;
8401;SDS011;4238;48.404;9.498;2023-02-28T02:15:41;3.57;;;3.27;;
8401;SDS011;4238;48.404;9.498;2023-02-28T02:18:14;4.40;;;3.83;;
8401;SDS011;4238;48.404;9.498;2023-02-28T02:21:08;4.53;;;4.13;;
8401;SDS011;4238;48.404;9.498;2023-02-28T02:24:06;4.90;;;4.27;;
8401;SDS011;4238;48.404;9.498;2023-02-28T02:27:14;3.93;;;3.63;;
8401;SDS011;4238;48.404;9.498;2023-02-28T02:29:59;4.53;;;4.13;;
8401;SDS011;4238;48.404;9.498;2023-02-28T02:32:41;5.90;;;4.70;;
8401;SDS011;4238;48.404;9.498;2023-02-28T02:35:36;4.47;;;4.07;;
8401;SDS011;4238;48.404;9.498;2023-02-28T02:38:08;3.80;;;3.50;;
8401;SDS011;4238;48.404;9.498;2023-02-28T02:40:42;4.43;;;4.03;;
8401;SDS011;4238;48.404;9.498;2023-02-28T02:43:16;5.57;;;4.13;;
8401;SDS011;4238;48.404;9.498;2023-02-28T02:45:49;4.43;;;4.03;;
8401;SDS011;4238;48.404;9.498;2023-02-28T02:48:21;4.77;;;4.10;;
8401;SDS011;4238;48.404;9.498;2023-02-28T02:50:54;4.27;;;3.87;;
8401;SDS011;4238;48.404;9.498;2023-02-28T02:53:24;5.63;;;3.77;;
8401;SDS011;4238;48.404;9.498;2023-02-28T02:55:55;5.80;;;4.40;;
8401;SDS011;4238;48.404;9.498;2023-02-28T02:58:25;3.90;;;3.60;;
8401;SDS011;4238;48.404;9.498;2023-02-28T03:00:56;3.93;;;3.63;;
8401;SDS011;4238;48.404;9.498;2023-02-28T03:03:26;4.97;;;3.87;;
8401;SDS011;4238;48.404;9.498;2023-02-28T03:05:57;4.23;;;3.93;;
8401;SDS011;4238;48.404;9.498;2023-02-28T03:08:26;4.37;;;3.80;;
8401;SDS011;4238;48.404;9.498;2023-02-28T03:10:55;4.90;;;4.40;;
8401;SDS011;4238;48.404;9.498;2023-02-28T03:16:23;4.60;;;4.20;;
8401;SDS011;4238;48.404;9.498;2023-02-28T03:19:03;5.83;;;5.20;;
8401;SDS011;4238;48.404;9.498;2023-02-28T03:21:46;5.07;;;4.17;;
8401;SDS011;4238;48.404;9.498;2023-02-28T03:24:24;4.70;;;4.20;;
8401;SDS011;4238;48.404;9.498;2023-02-28T03:27:01;4.97;;;4.47;;
8401;SDS011;4238;48.404;9.498;2023-02-28T03:29:34;6.80;;;4.73;;
8401;SDS011;4238;48.404;9.498;2023-02-28T03:32:05;5.07;;;4.57;;
8401;SDS011;4238;48.404;9.498;2023-02-28T03:34:42;5.00;;;4.13;;
8401;SDS011;4238;48.404;9.498;2023-02-28T03:37:18;5.00;;;4.60;;
8401;SDS011;4238;48.404;9.498;2023-02-28T03:39:49;4.90;;;4.10;;
8401;SDS011;4238;48.404;9.498;2023-02-28T03:42:22;4.67;;;4.27;;
8401;SDS011;4238;48.404;9.498;2023-02-28T03:44:53;4.77;;;4.27;;
8401;SDS011;4238;48.404;9.498;2023-02-28T03:47:25;6.93;;;4.63;;
8401;SDS011;4238;48.404;9.498;2023-02-28T03:49:56;6.40;;;4.80;;
8401;SDS011;4238;48.404;9.498;2023-02-28T03:52:29;6.63;;;4.43;;
8401;SDS011;4238;48.404;9.498;2023-02-28T03:55:02;5.07;;;4.57;;
8401;SDS011;4238;48.404;9.498;2023-02-28T03:57:33;5.70;;;5.17;;
8401;SDS011;4238;48.404;9.498;2023-02-28T04:00:04;7.03;;;4.87;;
8401;SDS011;4238;48.404;9.498;2023-02-28T04:02:34;4.73;;;4.33;;
8401;SDS011;4238;48.404;9.498;2023-02-28T04:05:01;5.43;;;4.67;;
8401;SDS011;4238;48.404;9.498;2023-02-28T04:07:30;5.83;;;4.47;;
8401;SDS011;4238;48.404;9.498;2023-02-28T04:09:57;4.87;;;4.47;;
8401;SDS011;4238;48.404;9.498;2023-02-28T04:12:24;5.30;;;4.80;;
8401;SDS011;4238;48.404;9.498;2023-02-28T04:14:52;4.93;;;4.43;;
8401;SDS011;4238;48.404;9.498;2023-02-28T04:17:19;4.83;;;4.43;;
8401;SDS011;4238;48.404;9.498;2023-02-28T04:19:45;5.30;;;4.90;;
8401;SDS011;4238;48.404;9.498;2023-02-28T04:22:12;5.07;;;4.57;;
8401;SDS011;4238;48.404;9.498;2023-02-28T04:24:41;6.67;;;5.13;;
8401;SDS011;4238;48.404;9.498;2023-02-28T04:27:08;6.73;;;4.87;;
8401;SDS011;4238;48.404;9.498;2023-02-28T04:29:35;7.73;;;5.50;;
8401;SDS011;4238;48.404;9.498;2023-02-28T04:32:02;6.27;;;4.60;;
8401;SDS011;4238;48.404;9.498;2023-02-28T04:34:30;5.47;;;4.50;;
8401;SDS011;4238;48.404;9.498;2023-02-28T04:36:58;6.17;;;4.80;;
8401;SDS011;4238;48.404;9.498;2023-02-28T04:39:25;5.77;;;5.27;;
8401;SDS011;4238;48.404;9.498;2023-02-28T04:41:53;5.83;;;4.90;;
8401;SDS011;4238;48.404;9.498;2023-02-28T04:44:20;5.53;;;5.03;;
8401;SDS011;4238;48.404;9.498;2023-02-28T04:46:48;6.43;;;5.70;;
8401;SDS011;4238;48.404;9.498;2023-02-28T04:49:15;6.53;;;5.27;;
8401;SDS011;4238;48.404;9.498;2023-02-28T04:51:42;6.37;;;4.80;;
8401;SDS011;4238;48.404;9.498;2023-02-28T04:54:09;7.97;;;5.70;;
8401;SDS011;4238;48.404;9.498;2023-02-28T04:56:36;7.40;;;5.77;;
8401;SDS011;4238;48.404;9.498;2023-02-28T04:59:04;7.13;;;5.50;;
8401;SDS011;4238;48.404;9.498;2023-02-28T05:01:32;6.30;;;5.53;;
8401;SDS011;4238;48.404;9.498;2023-02-28T05:04:01;6.00;;;5.40;;
8401;SDS011;4238;48.404;9.498;2023-02-28T05:06:30;6.97;;;5.17;;
8401;SDS011;4238;48.404;9.498;2023-02-28T05:08:58;6.87;;;5.47;;
8401;SDS011;4238;48.404;9.498;2023-02-28T05:11:26;6.27;;;5.67;;
8401;SDS011;4238;48.404;9.498;2023-02-28T05:13:58;8.30;;;5.83;;
8401;SDS011;4238;48.404;9.498;2023-02-28T05:16:27;7.27;;;6.10;;
8401;SDS011;4238;48.404;9.498;2023-02-28T05:18:54;8.50;;;5.43;;
8401;SDS011;4238;48.404;9.498;2023-02-28T05:21:25;8.83;;;6.47;;
8401;SDS011;4238;48.404;9.498;2023-02-28T05:23:54;10.83;;;6.93;;
8401;SDS011;4238;48.404;9.498;2023-02-28T05:26:23;9.10;;;6.67;;
8401;SDS011;4238;48.404;9.498;2023-02-28T05:28:50;9.43;;;6.47;;
8401;SDS011;4238;48.404;9.498;2023-02-28T05:31:18;7.10;;;6.40;;
8401;SDS011;4238;48.404;9.498;2023-02-28T05:33:46;8.30;;;6.77;;
8401;SDS011;4238;48.404;9.498;2023-02-28T05:36:13;8.83;;;7.07;;
8401;SDS011;4238;48.404;9.498;2023-02-28T05:38:40;6.87;;;6.17;;
8401;SDS011;4238;48.404;9.498;2023-02-28T05:41:07;8.47;;;6.00;;
8401;SDS011;4238;48.404;9.498;2023-02-28T05:43:36;7.50;;;6.57;;
8401;SDS011;4238;48.404;9.498;2023-02-28T05:46:04;9.07;;;6.57;;
8401;SDS011;4238;48.404;9.498;2023-02-28T05:48:31;7.23;;;5.73;;
8401;SDS011;4238;48.404;9.498;2023-02-28T05:51:00;8.67;;;6.70;;
8401;SDS011;4238;48.404;9.498;2023-02-28T05:53:27;7.63;;;6.50;;
8401;SDS011;4238;48.404;9.498;2023-02-28T05:55:54;7.80;;;6.50;;
8401;SDS011;4238;48.404;9.498;2023-02-28T05:58:21;11.33;;;6.43;;
8401;SDS011;4238;48.404;9.498;2023-02-28T06:00:50;10.13;;;7.47;;
8401;SDS011;4238;48.404;9.498;2023-02-28T06:03:17;9.33;;;6.87;;
8401;SDS011;4238;48.404;9.498;2023-02-28T06:05:44;9.00;;;6.53;;
8401;SDS011;4238;48.404;9.498;2023-02-28T06:08:12;7.43;;;6.10;;
8401;SDS011;4238;48.404;9.498;2023-02-28T06:10:39;9.03;;;6.37;;
8401;SDS011;4238;48.404;9.498;2023-02-28T06:13:06;7.70;;;6.77;;
8401;SDS011;4238;48.404;9.498;2023-02-28T06:15:33;11.10;;;7.50;;
8401;SDS011;4238;48.404;9.498;2023-02-28T06:18:00;14.10;;;8.17;;
8401;SDS011;4238;48.404;9.498;2023-02-28T06:20:27;8.60;;;7.23;;
8401;SDS011;4238;48.404;9.498;2023-02-28T06:22:54;11.40;;;7.13;;
8401;SDS011;4238;48.404;9.498;2023-02-28T06:25:24;16.27;;;10.13;;
8401;SDS011;4238;48.404;9.498;2023-02-28T06:27:52;16.50;;;9.60;;
8401;SDS011;4238;48.404;9.498;2023-02-28T06:30:19;28.80;;;15.77;;
8401;SDS011;4238;48.404;9.498;2023-02-28T06:32:49;11.50;;;8.83;;
8401;SDS011;4238;48.404;9.498;2023-02-28T06:35:17;7.63;;;6.50;;
8401;SDS011;4238;48.404;9.498;2023-02-28T06:37:44;10.80;;;7.10;;
8401;SDS011;4238;48.404;9.498;2023-02-28T06:40:12;7.83;;;6.30;;
8401;SDS011;4238;48.404;9.498;2023-02-28T06:42:41;9.47;;;7.33;;
8401;SDS011;4238;48.404;9.498;2023-02-28T06:45:08;9.37;;;7.27;;
8401;SDS011;4238;48.404;9.498;2023-02-28T06:47:36;11.68;;;10.10;;
8401;SDS011;4238;48.404;9.498;2023-02-28T06:50:04;9.47;;;8.43;;
8401;SDS011;4238;48.404;9.498;2023-02-28T06:52:31;9.73;;;7.97;;
8401;SDS011;4238;48.404;9.498;2023-02-28T06:55:01;9.23;;;7.73;;
8401;SDS011;4238;48.404;9.498;2023-02-28T06:57:28;11.27;;;7.70;;
8401;SDS011;4238;48.404;9.498;2023-02-28T06:59:58;8.63;;;7.80;;
8401;SDS011;4238;48.404;9.498;2023-02-28T07:02:26;9.30;;;7.30;;
8401;SDS011;4238;48.404;9.498;2023-02-28T07:04:53;11.13;;;8.90;;
8401;SDS011;4238;48.404;9.498;2023-02-28T07:07:20;10.07;;;8.10;;
8401;SDS011;4238;48.404;9.498;2023-02-28T07:09:47;11.23;;;7.37;;
8401;SDS011;4238;48.404;9.498;2023-02-28T07:12:14;11.23;;;7.87;;
8401;SDS011;4238;48.404;9.498;2023-02-28T07:14:41;12.40;;;8.80;;
8401;SDS011;4238;48.404;9.498;2023-02-28T07:17:09;10.23;;;8.80;;
8401;SDS011;4238;48.404;9.498;2023-02-28T07:19:37;11.53;;;9.43;;
8401;SDS011;4238;48.404;9.498;2023-02-28T07:22:04;10.27;;;8.13;;
8401;SDS011;4238;48.404;9.498;2023-02-28T07:24:34;8.47;;;7.60;;
8401;SDS011;4238;48.404;9.498;2023-02-28T07:27:01;10.97;;;8.27;;
8401;SDS011;4238;48.404;9.498;2023-02-28T07:29:28;10.10;;;8.00;;
8401;SDS011;4238;48.404;9.498;2023-02-28T07:31:55;9.77;;;8.23;;
8401;SDS011;4238;48.404;9.498;2023-02-28T07:34:24;11.60;;;8.17;;
8401;SDS011;4238;48.404;9.498;2023-02-28T07:36:52;10.17;;;8.10;;
8401;SDS011;4238;48.404;9.498;2023-02-28T07:39:19;11.40;;;8.53;;
8401;SDS011;4238;48.404;9.498;2023-02-28T07:41:47;11.77;;;8.63;;
8401;SDS011;4238;48.404;9.498;2023-02-28T07:44:14;9.27;;;8.13;;
8401;SDS011;4238;48.404;9.498;2023-02-28T07:46:41;8.27;;;7.40;;
8401;SDS011;4238;48.404;9.498;2023-02-28T07:49:08;9.80;;;7.73;;
8401;SDS011;4238;48.404;9.498;2023-02-28T07:51:36;10.63;;;8.83;;
8401;SDS011;4238;48.404;9.498;2023-02-28T07:54:03;11.23;;;8.10;;
8401;SDS011;4238;48.404;9.498;2023-02-28T07:56:30;10.07;;;8.23;;
8401;SDS011;4238;48.404;9.498;2023-02-28T07:58:57;9.40;;;7.80;;
8401;SDS011;4238;48.404;9.498;2023-02-28T08:01:25;10.97;;;8.20;;
8401;SDS011;4238;48.404;9.498;2023-02-28T08:03:51;11.00;;;7.93;;
8401;SDS011;4238;48.404;9.498;2023-02-28T08:06:20;13.03;;;8.80;;
8401;SDS011;4238;48.404;9.498;2023-02-28T08:08:50;10.97;;;8.57;;
8401;SDS011;4238;48.404;9.498;2023-02-28T08:11:17;10.77;;;8.00;;
8401;SDS011;4238;48.404;9.498;2023-02-28T08:13:44;11.47;;;8.17;;
8401;SDS011;4238;48.404;9.498;2023-02-28T08:16:12;9.00;;;8.10;;
8401;SDS011;4238;48.404;9.498;2023-02-28T08:18:42;13.87;;;8.73;;
8401;SDS011;4238;48.404;9.498;2023-02-28T08:21:09;9.90;;;8.30;;
8401;SDS011;4238;48.404;9.498;2023-02-28T08:23:37;10.10;;;8.60;;
8401;SDS011;4238;48.404;9.498;2023-02-28T08:26:05;9.53;;;8.53;;
8401;SDS011;4238;48.404;9.498;2023-02-28T08:28:32;11.77;;;9.00;;
8401;SDS011;4238;48.404;9.498;2023-02-28T08:31:00;8.43;;;7.50;;
8401;SDS011;4238;48.404;9.498;2023-02-28T08:33:27;12.17;;;8.87;;
8401;SDS011;4238;48.404;9.498;2023-02-28T08:35:54;9.47;;;8.40;;
8401;SDS011;4238;48.404;9.498;2023-02-28T08:38:21;13.50;;;9.80;;
8401;SDS011;4238;48.404;9.498;2023-02-28T08:40:48;9.77;;;8.40;;
8401;SDS011;4238;48.404;9.498;2023-02-28T08:43:17;10.47;;;8.70;;
8401;SDS011;4238;48.404;9.498;2023-02-28T08:45:44;11.83;;;8.60;;
8401;SDS011;4238;48.404;9.498;2023-02-28T08:48:11;11.53;;;9.00;;
8401;SDS011;4238;48.404;9.498;2023-02-28T08:50:38;10.40;;;8.77;;
8401;SDS011;4238;48.404;9.498;2023-02-28T08:53:05;13.07;;;9.10;;
8401;SDS011;4238;48.404;9.498;2023-02-28T08:55:32;11.00;;;8.53;;
8401;SDS011;4238;48.404;9.498;2023-02-28T08:57:59;11.30;;;9.83;;
8401;SDS011;4238;48.404;9.498;2023-02-28T09:00:28;11.53;;;9.37;;
8401;SDS011;4238;48.404;9.498;2023-02-28T09:02:55;12.47;;;9.47;;
8401;SDS011;4238;48.404;9.498;2023-02-28T09:05:22;13.27;;;9.40;;
8401;SDS011;4238;48.404;9.498;2023-02-28T09:07:49;10.57;;;9.03;;
8401;SDS011;4238;48.404;9.498;2023-02-28T09:10:16;11.63;;;9.23;;
8401;SDS011;4238;48.404;9.498;2023-02-28T09:12:43;10.40;;;8.63;;
8401;SDS011;4238;48.404;9.498;2023-02-28T09:15:11;9.97;;;8.97;;
8401;SDS011;4238;48.404;9.498;2023-02-28T09:17:40;13.23;;;10.40;;
8401;SDS011;4238;48.404;9.498;2023-02-28T09:20:07;12.30;;;8.63;;
8401;SDS011;4238;48.404;9.498;2023-02-28T09:22:35;13.07;;;9.23;;
8401;SDS011;4238;48.404;9.498;2023-02-28T09:25:02;12.47;;;8.90;;
8401;SDS011;4238;48.404;9.498;2023-02-28T09:27:29;9.23;;;8.23;;
8401;SDS011;4238;48.404;9.498;2023-02-28T09:29:56;11.23;;;8.40;;
8401;SDS011;4238;48.404;9.498;2023-02-28T09:32:23;10.30;;;9.20;;
8401;SDS011;4238;48.404;9.498;2023-02-28T09:34:51;11.97;;;9.27;;
8401;SDS011;4238;48.404;9.498;2023-02-28T09:37:18;11.30;;;8.93;;
8401;SDS011;4238;48.404;9.498;2023-02-28T09:39:45;13.00;;;9.57;;
8401;SDS011;4238;48.404;9.498;2023-02-28T09:42:17;14.47;;;8.70;;
8401;SDS011;4238;48.404;9.498;2023-02-28T09:44:48;9.13;;;8.03;;
8401;SDS011;4238;48.404;9.498;2023-02-28T09:47:17;12.53;;;10.53;;
8401;SDS011;4238;48.404;9.498;2023-02-28T09:49:53;11.23;;;8.87;;
8401;SDS011;4238;48.404;9.498;2023-02-28T09:52:24;10.80;;;8.80;;
8401;SDS011;4238;48.404;9.498;2023-02-28T09:54:54;14.43;;;10.57;;
8401;SDS011;4238;48.404;9.498;2023-02-28T09:57:24;11.90;;;9.77;;
8401;SDS011;4238;48.404;9.498;2023-02-28T10:00:01;14.80;;;10.23;;
8401;SDS011;4238;48.404;9.498;2023-02-28T10:02:46;11.67;;;9.30;;
8401;SDS011;4238;48.404;9.498;2023-02-28T10:05:25;11.23;;;9.53;;
8401;SDS011;4238;48.404;9.498;2023-02-28T10:07:57;12.43;;;9.90;;
8401;SDS011;4238;48.404;9.498;2023-02-28T10:10:32;13.03;;;9.67;;
8401;SDS011;4238;48.404;9.498;2023-02-28T10:13:04;11.20;;;8.87;;
8401;SDS011;4238;48.404;9.498;2023-02-28T10:15:37;10.33;;;9.33;;
8401;SDS011;4238;48.404;9.498;2023-02-28T10:18:04;16.23;;;13.03;;
8401;SDS011;4238;48.404;9.498;2023-02-28T10:20:48;10.10;;;8.87;;
8401;SDS011;4238;48.404;9.498;2023-02-28T10:23:17;12.23;;;10.30;;
8401;SDS011;4238;48.404;9.498;2023-02-28T10:25:49;13.67;;;11.07;;
8401;SDS011;4238;48.404;9.498;2023-02-28T10:28:20;12.30;;;10.47;;
8401;SDS011;4238;48.404;9.498;2023-02-28T10:30:48;19.57;;;13.90;;
8401;SDS011;4238;48.404;9.498;2023-02-28T10:33:18;10.80;;;9.23;;
8401;SDS011;4238;48.404;9.498;2023-02-28T10:35:50;13.03;;;10.07;;
8401;SDS011;4238;48.404;9.498;2023-02-28T10:38:18;9.97;;;8.83;;
8401;SDS011;4238;48.404;9.498;2023-02-28T10:40:47;12.70;;;9.73;;
8401;SDS011;4238;48.404;9.498;2023-02-28T10:43:19;11.30;;;9.83;;
8401;SDS011;4238;48.404;9.498;2023-02-28T10:45:55;10.60;;;9.50;;
8401;SDS011;4238;48.404;9.498;2023-02-28T10:48:29;11.67;;;9.43;;
8401;SDS011;4238;48.404;9.498;2023-02-28T10:51:01;14.87;;;10.83;;
8401;SDS011;4238;48.404;9.498;2023-02-28T10:53:39;22.63;;;16.13;;
8401;SDS011;4238;48.404;9.498;2023-02-28T10:56:15;10.60;;;9.27;;
8401;SDS011;4238;48.404;9.498;2023-02-28T10:58:48;11.43;;;9.00;;
8401;SDS011;4238;48.404;9.498;2023-02-28T11:01:18;10.97;;;8.57;;
8401;SDS011;4238;48.404;9.498;2023-02-28T11:03:46;12.83;;;9.00;;
8401;SDS011;4238;48.404;9.498;2023-02-28T11:06:16;10.23;;;9.13;;
8401;SDS011;4238;48.404;9.498;2023-02-28T11:08:47;10.47;;;9.33;;
8401;SDS011;4238;48.404;9.498;2023-02-28T11:11:16;11.63;;;9.20;;
8401;SDS011;4238;48.404;9.498;2023-02-28T11:13:45;13.77;;;10.43;;
8401;SDS011;4238;48.404;9.498;2023-02-28T11:16:15;12.20;;;9.67;;
8401;SDS011;4238;48.404;9.498;2023-02-28T11:18:43;11.70;;;9.87;;
8401;SDS011;4238;48.404;9.498;2023-02-28T11:21:23;10.20;;;9.20;;
8401;SDS011;4238;48.404;9.498;2023-02-28T11:23:54;10.63;;;8.90;;
8401;SDS011;4238;48.404;9.498;2023-02-28T11:26:36;11.63;;;9.17;;
8401;SDS011;4238;48.404;9.498;2023-02-28T11:29:12;11.30;;;8.50;;
8401;SDS011;4238;48.404;9.498;2023-02-28T11:31:59;10.20;;;8.93;;
8401;SDS011;4238;48.404;9.498;2023-02-28T11:34:34;8.30;;;7.43;;
8401;SDS011;4238;48.404;9.498;2023-02-28T11:37:04;13.70;;;9.40;;
8401;SDS011;4238;48.404;9.498;2023-02-28T11:39:36;10.87;;;8.67;;
8401;SDS011;4238;48.404;9.498;2023-02-28T11:42:19;11.77;;;8.73;;
8401;SDS011;4238;48.404;9.498;2023-02-28T11:45:12;10.40;;;9.43;;
8401;SDS011;4238;48.404;9.498;2023-02-28T11:47:48;10.90;;;8.57;;
8401;SDS011;4238;48.404;9.498;2023-02-28T11:50:38;9.97;;;7.80;;
8401;SDS011;4238;48.404;9.498;2023-02-28T11:53:17;10.80;;;9.43;;
8401;SDS011;4238;48.404;9.498;2023-02-28T11:55:51;10.17;;;9.13;;
8401;SDS011;4238;48.404;9.498;2023-02-28T11:58:26;10.60;;;9.37;;
8401;SDS011;4238;48.404;9.498;2023-02-28T12:01:06;11.53;;;10.43;;
8401;SDS011;4238;48.404;9.498;2023-02-28T12:03:45;11.40;;;9.83;;
8401;SDS011;4238;48.404;9.498;2023-02-28T12:06:22;13.87;;;10.50;;
8401;SDS011;4238;48.404;9.498;2023-02-28T12:09:12;10.47;;;9.37;;
8401;SDS011;4238;48.404;9.498;2023-02-28T12:11:52;11.30;;;9.63;;
8401;SDS011;4238;48.404;9.498;2023-02-28T12:14:25;24.87;;;16.70;;
8401;SDS011;4238;48.404;9.498;2023-02-28T12:17:20;13.13;;;9.73;;
8401;SDS011;4238;48.404;9.498;2023-02-28T12:19:56;12.60;;;10.03;;
8401;SDS011;4238;48.404;9.498;2023-02-28T12:22:29;13.00;;;10.87;;
8401;SDS011;4238;48.404;9.498;2023-02-28T12:25:02;10.93;;;9.40;;
8401;SDS011;4238;48.404;9.498;2023-02-28T12:27:56;11.73;;;10.57;;
8401;SDS011;4238;48.404;9.498;2023-02-28T12:30:24;15.17;;;12.80;;
8401;SDS011;4238;48.404;9.498;2023-02-28T12:32:54;10.33;;;9.23;;
8401;SDS011;4238;48.404;9.498;2023-02-28T12:35:25;9.93;;;8.97;;
8401;SDS011;4238;48.404;9.498;2023-02-28T12:38:01;21.77;;;16.50;;
8401;SDS011;4238;48.404;9.498;2023-02-28T12:40:34;10.40;;;9.30;;
8401;SDS011;4238;48.404;9.498;2023-02-28T12:43:11;11.27;;;9.33;;
8401;SDS011;4238;48.404;9.498;2023-02-28T12:45:40;11.83;;;10.63;;
8401;SDS011;4238;48.404;9.498;2023-02-28T12:48:14;17.10;;;13.50;;
8401;SDS011;4238;48.404;9.498;2023-02-28T12:50:47;12.07;;;10.87;;
8401;SDS011;4238;48.404;9.498;2023-02-28T12:53:15;11.40;;;10.27;;
8401;SDS011;4238;48.404;9.498;2023-02-28T12:55:52;11.93;;;10.10;;
8401;SDS011;4238;48.404;9.498;2023-02-28T12:58:29;10.47;;;9.43;;
8401;SDS011;4238;48.404;9.498;2023-02-28T13:01:05;10.63;;;8.77;;
8401;SDS011;4238;48.404;9.498;2023-02-28T13:03:46;11.43;;;9.37;;
8401;SDS011;4238;48.404;9.498;2023-02-28T13:06:28;14.53;;;10.67;;
8401;SDS011;4238;48.404;9.498;2023-02-28T13:09:15;20.80;;;13.60;;
8401;SDS011;4238;48.404;9.498;2023-02-28T13:11:46;18.77;;;13.93;;
8401;SDS011;4238;48.404;9.498;2023-02-28T13:14:22;21.93;;;15.03;;
8401;SDS011;4238;48.404;9.498;2023-02-28T13:16:54;16.53;;;12.97;;
8401;SDS011;4238;48.404;9.498;2023-02-28T13:19:28;22.07;;;13.50;;
8401;SDS011;4238;48.404;9.498;2023-02-28T13:21:57;16.67;;;12.13;;
8401;SDS011;4238;48.404;9.498;2023-02-28T13:24:36;14.23;;;10.73;;
8401;SDS011;4238;48.404;9.498;2023-02-28T13:33:22;12.80;;;10.20;;
8401;SDS011;4238;48.404;9.498;2023-02-28T13:38:39;9.87;;;8.70;;
8401;SDS011;4238;48.404;9.498;2023-02-28T13:44:15;10.00;;;9.00;;
8401;SDS011;4238;48.404;9.498;2023-02-28T13:49:49;10.80;;;8.53;;
8401;SDS011;4238;48.404;9.498;2023-02-28T13:52:18;11.53;;;9.33;;
8401;SDS011;4238;48.404;9.498;2023-02-28T13:54:53;10.50;;;8.83;;
8401;SDS011;4238;48.404;9.498;2023-02-28T13:57:42;13.70;;;9.63;;
8401;SDS011;4238;48.404;9.498;2023-02-28T14:00:23;9.87;;;8.87;;
8401;SDS011;4238;48.404;9.498;2023-02-28T14:03:08;9.37;;;8.07;;
8401;SDS011;4238;48.404;9.498;2023-02-28T14:05:44;11.30;;;9.30;;
8401;SDS011;4238;48.404;9.498;2023-02-28T14:08:12;10.80;;;8.93;;
8401;SDS011;4238;48.404;9.498;2023-02-28T14:10:43;12.40;;;8.87;;
8401;SDS011;4238;48.404;9.498;2023-02-28T14:13:13;9.37;;;8.47;;
8401;SDS011;4238;48.404;9.498;2023-02-28T14:15:57;10.47;;;8.40;;
8401;SDS011;4238;48.404;9.498;2023-02-28T14:18:27;20.70;;;13.40;;
8401;SDS011;4238;48.404;9.498;2023-02-28T14:20:58;10.03;;;9.03;;
8401;SDS011;4238;48.404;9.498;2023-02-28T14:23:39;13.27;;;10.40;;
8401;SDS011;4238;48.404;9.498;2023-02-28T14:26:19;15.37;;;11.23;;
8401;SDS011;4238;48.404;9.498;2023-02-28T14:29:01;11.90;;;9.83;;
8401;SDS011;4238;48.404;9.498;2023-02-28T14:31:46;11.57;;;10.13;;
8401;SDS011;4238;48.404;9.498;2023-02-28T14:34:25;10.03;;;8.73;;
8401;SDS011;4238;48.404;9.498;2023-02-28T14:37:01;10.37;;;8.17;;
8401;SDS011;4238;48.404;9.498;2023-02-28T14:39:29;8.90;;;8.10;;
8401;SDS011;4238;48.404;9.498;2023-02-28T14:41:57;8.93;;;8.03;;
8401;SDS011;4238;48.404;9.498;2023-02-28T14:44:28;9.70;;;8.70;;
8401;SDS011;4238;48.404;9.498;2023-02-28T14:46:57;12.17;;;9.00;;
8401;SDS011;4238;48.404;9.498;2023-02-28T14:49:29;10.63;;;9.57;;
8401;SDS011;4238;48.404;9.498;2023-02-28T14:52:02;9.13;;;8.17;;
8401;SDS011;4238;48.404;9.498;2023-02-28T14:54:34;12.60;;;9.53;;
8401;SDS011;4238;48.404;9.498;2023-02-28T14:57:02;11.00;;;8.80;;
8401;SDS011;4238;48.404;9.498;2023-02-28T14:59:31;9.03;;;8.13;;
8401;SDS011;4238;48.404;9.498;2023-02-28T15:05:00;9.27;;;8.27;;
8401;SDS011;4238;48.404;9.498;2023-02-28T15:07:36;8.80;;;7.90;;
8401;SDS011;4238;48.404;9.498;2023-02-28T15:10:06;9.33;;;8.30;;
8401;SDS011;4238;48.404;9.498;2023-02-28T15:12:39;9.50;;;8.00;;
8401;SDS011;4238;48.404;9.498;2023-02-28T15:15:13;10.20;;;9.10;;
8401;SDS011;4238;48.404;9.498;2023-02-28T15:17:43;10.33;;;7.97;;
8401;SDS011;4238;48.404;9.498;2023-02-28T15:20:14;8.87;;;7.97;;
8401;SDS011;4238;48.404;9.498;2023-02-28T15:22:43;8.63;;;7.77;;
8401;SDS011;4238;48.404;9.498;2023-02-28T15:25:13;9.90;;;8.07;;
8401;SDS011;4238;48.404;9.498;2023-02-28T15:27:44;11.90;;;8.53;;
8401;SDS011;4238;48.404;9.498;2023-02-28T15:30:15;11.97;;;8.77;;
8401;SDS011;4238;48.404;9.498;2023-02-28T15:32:48;11.67;;;8.13;;
8401;SDS011;4238;48.404;9.498;2023-02-28T15:35:30;9.97;;;8.83;;
8401;SDS011;4238;48.404;9.498;2023-02-28T15:38:00;8.90;;;8.00;;
8401;SDS011;4238;48.404;9.498;2023-02-28T15:40:30;9.27;;;8.30;;
8401;SDS011;4238;48.404;9.498;2023-02-28T15:42:59;10.00;;;9.00;;
8401;SDS011;4238;48.404;9.498;2023-02-28T15:45:33;9.10;;;7.60;;
8401;SDS011;4238;48.404;9.498;2023-02-28T15:48:11;12.63;;;8.33;;
8401;SDS011;4238;48.404;9.498;2023-02-28T15:50:42;9.67;;;8.67;;
8401;SDS011;4238;48.404;9.498;2023-02-28T15:53:12;11.30;;;8.50;;